Time;durP1;ratioP1;P1;durP2;ratioP2;P2;SDS_P1;SDS_P2;PMS_P1;PMS_P2;Temp;Humidity;BMP_temperature;BMP_pressure;BME280_temperature;BME280_humidity;BME280_pressure;Samples;Min_cycle;Max_cycle;Signal;HPM_P1;HPM_P2
2023/03/08 00:02:16;;;;;;;3.37;2.37;;;0.90;99.90;;;;;;5093995;28;20223;-44
2023/03/08 00:04:42;;;;;;;4.60;2.07;;;0.90;99.90;;;;;;5094007;28;20242;-45
2023/03/08 00:07:08;;;;;;;2.60;2.27;;;0.90;99.90;;;;;;5094025;28;20216;-46
2023/03/08 00:09:33;;;;;;;2.27;1.87;;;0.90;99.90;;;;;;5094081;28;20178;-44
2023/03/08 00:11:59;;;;;;;4.03;2.20;;;0.90;99.90;;;;;;5094277;28;20187;-45
2023/03/08 00:14:24;;;;;;;4.07;2.20;;;0.90;99.90;;;;;;5094157;28;20182;-44
2023/03/08 00:16:50;;;;;;;5.67;3.00;;;0.90;99.90;;;;;;5093938;28;20207;-44
2023/03/08 00:19:15;;;;;;;2.30;2.10;;;0.90;99.90;;;;;;5093690;28;20255;-44
2023/03/08 00:21:41;;;;;;;3.30;2.40;;;0.90;99.90;;;;;;5093960;28;20203;-45
2023/03/08 00:24:07;;;;;;;3.67;2.47;;;0.90;99.90;;;;;;5093829;28;20764;-43
2023/03/08 00:26:33;;;;;;;5.53;3.00;;;0.90;99.90;;;;;;5093712;28;20194;-43
2023/03/08 00:28:58;;;;;;;3.37;2.30;;;0.90;99.90;;;;;;5092654;28;20526;-44
2023/03/08 00:31:24;;;;;;;3.97;2.53;;;0.90;99.90;;;;;;5093964;28;20206;-45
2023/03/08 00:33:53;;;;;;;3.80;2.30;;;0.90;99.90;;;;;;5093948;28;20188;-44
2023/03/08 00:36:21;;;;;;;5.63;2.50;;;0.90;99.90;;;;;;5095183;28;20214;-45
2023/03/08 00:38:49;;;;;;;5.60;2.63;;;0.90;99.90;;;;;;5115035;28;20182;-45
2023/03/08 00:41:14;;;;;;;5.83;2.80;;;0.90;99.90;;;;;;5106556;28;20231;-44
2023/03/08 00:43:41;;;;;;;4.40;2.67;;;0.90;99.90;;;;;;5092629;28;20677;-45
2023/03/08 00:46:07;;;;;;;3.50;2.60;;;0.90;99.90;;;;;;5094250;28;20194;-44
2023/03/08 00:48:33;;;;;;;3.63;2.53;;;0.90;99.90;;;;;;5094027;28;20568;-44
2023/03/08 00:50:58;;;;;;;4.07;2.87;;;0.80;99.90;;;;;;5094917;28;20753;-43
2023/03/08 00:53:24;;;;;;;2.70;2.20;;;0.90;99.90;;;;;;5097830;28;20175;-43
2023/03/08 00:55:52;;;;;;;3.50;2.40;;;0.80;99.90;;;;;;5097979;28;20335;-44
2023/03/08 00:58:19;;;;;;;4.23;2.63;;;0.90;99.90;;;;;;5097785;28;20253;-44
2023/03/08 01:00:45;;;;;;;3.43;2.50;;;0.80;99.90;;;;;;5097481;28;20195;-43
2023/03/08 01:03:10;;;;;;;4.40;2.40;;;0.80;99.90;;;;;;5097390;28;20176;-45
2023/03/08 01:05:44;;;;;;;3.97;2.80;;;0.90;99.90;;;;;;5097786;28;20259;-44
2023/03/08 01:08:11;;;;;;;4.37;2.70;;;0.80;99.90;;;;;;5097910;28;20195;-42
2023/03/08 01:10:37;;;;;;;5.00;2.97;;;0.90;99.90;;;;;;5096300;28;20559;-45
2023/03/08 01:13:05;;;;;;;6.37;3.87;;;0.90;99.90;;;;;;5097958;28;20276;-45
2023/03/08 01:15:35;;;;;;;4.70;3.40;;;0.90;99.90;;;;;;5097360;28;20692;-44
2023/03/08 01:18:00;;;;;;;3.53;2.77;;;0.80;99.90;;;;;;5097120;28;20183;-45
2023/03/08 01:20:26;;;;;;;3.87;2.90;;;0.80;99.90;;;;;;5097443;28;20205;-44
2023/03/08 01:22:51;;;;;;;2.90;2.30;;;0.80;99.90;;;;;;5097121;28;20178;-44
2023/03/08 01:25:17;;;;;;;6.13;3.17;;;0.90;99.90;;;;;;5097287;28;20182;-45
2023/03/08 01:27:43;;;;;;;3.27;2.83;;;0.80;99.90;;;;;;5097017;28;20185;-44
2023/03/08 01:30:09;;;;;;;3.93;2.70;;;0.90;99.90;;;;;;5095631;28;20203;-44
2023/03/08 01:32:34;;;;;;;5.13;2.80;;;0.80;99.90;;;;;;5096832;28;20183;-44
2023/03/08 01:35:03;;;;;;;3.00;2.43;;;0.90;99.90;;;;;;5096864;28;20258;-44
2023/03/08 01:37:30;;;;;;;4.27;2.90;;;0.80;99.90;;;;;;5096826;28;20185;-43
2023/03/08 01:39:56;;;;;;;6.97;2.80;;;0.80;99.90;;;;;;5095813;28;20190;-43
2023/03/08 01:42:22;;;;;;;5.47;3.00;;;0.80;99.90;;;;;;5096710;28;20223;-45
2023/03/08 01:44:57;;;;;;;4.53;2.70;;;0.90;99.90;;;;;;5096805;28;20638;-43
2023/03/08 01:47:28;;;;;;;4.07;3.10;;;0.80;99.90;;;;;;5096865;28;20174;-43
2023/03/08 01:50:09;;;;;;;2.80;2.23;;;0.90;99.90;;;;;;5096863;28;20205;-45
2023/03/08 01:52:48;;;;;;;4.33;2.63;;;0.90;99.90;;;;;;5096579;28;20669;-44
2023/03/08 01:55:15;;;;;;;4.50;3.00;;;0.80;99.90;;;;;;5096829;28;20187;-44
2023/03/08 01:57:48;;;;;;;5.17;2.90;;;0.90;99.90;;;;;;5096352;28;20289;-44
2023/03/08 02:00:18;;;;;;;5.00;2.67;;;0.90;99.90;;;;;;5096784;28;20655;-43
2023/03/08 02:02:52;;;;;;;4.13;2.80;;;0.90;99.90;;;;;;5095076;28;20175;-44
2023/03/08 02:05:18;;;;;;;3.67;2.70;;;0.90;99.90;;;;;;5096767;28;20610;-46
2023/03/08 02:07:44;;;;;;;4.40;2.70;;;0.90;99.90;;;;;;5096679;28;20200;-42
2023/03/08 02:10:11;;;;;;;4.33;3.03;;;0.80;99.90;;;;;;5096238;28;20282;-44
2023/03/08 02:12:38;;;;;;;4.00;2.50;;;0.80;99.90;;;;;;5096440;28;20262;-44
2023/03/08 02:15:07;;;;;;;5.63;3.47;;;0.90;99.90;;;;;;5096063;28;20254;-45
2023/03/08 02:17:39;;;;;;;4.70;2.90;;;0.80;99.90;;;;;;5095962;28;20194;-46
2023/03/08 02:20:14;;;;;;;4.43;2.87;;;0.80;99.90;;;;;;5095945;28;20205;-45
2023/03/08 02:22:42;;;;;;;5.73;3.17;;;0.90;99.90;;;;;;5096223;28;20178;-44
2023/03/08 02:25:15;;;;;;;5.20;3.43;;;0.80;99.90;;;;;;5096209;28;20171;-43
2023/03/08 02:27:41;;;;;;;4.90;3.63;;;0.90;99.90;;;;;;5095798;28;20185;-43
2023/03/08 02:30:09;;;;;;;4.97;3.20;;;0.90;99.90;;;;;;5096213;28;20187;-44
2023/03/08 02:32:35;;;;;;;5.03;3.20;;;0.90;99.90;;;;;;5096302;28;20634;-45
2023/03/08 02:35:01;;;;;;;6.93;3.90;;;0.90;99.90;;;;;;5095989;28;20218;-45
2023/03/08 02:37:26;;;;;;;8.20;3.90;;;0.90;99.90;;;;;;5095804;28;20212;-45
2023/03/08 02:39:52;;;;;;;5.53;3.73;;;0.90;99.90;;;;;;5095789;28;20171;-44
2023/03/08 02:42:17;;;;;;;5.30;3.47;;;0.90;99.90;;;;;;5095647;28;20184;-44
2023/03/08 02:44:43;;;;;;;6.73;4.47;;;0.90;99.90;;;;;;5095468;28;20183;-46
2023/03/08 02:47:09;;;;;;;6.40;4.37;;;0.90;99.90;;;;;;5095676;28;20533;-46
2023/03/08 02:49:35;;;;;;;8.87;4.20;;;0.90;99.90;;;;;;5095294;28;20574;-45
2023/03/08 02:52:03;;;;;;;6.53;4.47;;;0.90;99.90;;;;;;5095211;28;20186;-43
2023/03/08 02:54:29;;;;;;;9.43;4.17;;;0.90;99.90;;;;;;5096244;28;20178;-44
2023/03/08 02:56:54;;;;;;;7.47;4.53;;;0.90;99.90;;;;;;5096113;28;20750;-43
2023/03/08 02:59:20;;;;;;;8.60;4.70;;;0.90;99.90;;;;;;5095161;28;20175;-43
2023/03/08 03:01:45;;;;;;;5.97;4.00;;;0.90;99.90;;;;;;5095104;28;20204;-44
2023/03/08 03:04:11;;;;;;;6.33;4.10;;;0.90;99.90;;;;;;5095190;28;20167;-45
2023/03/08 03:06:37;;;;;;;6.17;4.00;;;0.90;99.90;;;;;;5095093;28;20174;-45
2023/03/08 03:09:08;;;;;;;5.70;3.50;;;0.90;99.90;;;;;;5095338;28;20677;-45
2023/03/08 03:11:34;;;;;;;5.83;4.00;;;0.90;99.90;;;;;;5095255;28;20202;-46
2023/03/08 03:14:00;;;;;;;7.60;3.50;;;0.90;99.90;;;;;;5094737;28;20185;-45
2023/03/08 03:16:26;;;;;;;7.73;3.83;;;0.90;99.90;;;;;;5095106;28;20558;-45
2023/03/08 03:18:52;;;;;;;5.80;3.37;;;0.90;99.90;;;;;;5094793;28;20187;-44
2023/03/08 03:21:18;;;;;;;5.03;3.67;;;0.90;99.90;;;;;;5093563;28;20232;-42
2023/03/08 03:23:44;;;;;;;6.07;3.23;;;0.90;99.90;;;;;;5095088;28;20185;-44
2023/03/08 03:26:16;;;;;;;4.47;3.20;;;0.90;99.90;;;;;;5093515;28;20206;-43
2023/03/08 03:28:42;;;;;;;4.80;3.20;;;0.90;99.90;;;;;;5094739;28;20171;-46
2023/03/08 03:31:09;;;;;;;5.83;3.47;;;0.90;99.90;;;;;;5094580;28;20186;-45
2023/03/08 03:33:35;;;;;;;7.30;3.37;;;0.90;99.90;;;;;;5099368;28;20191;-44
2023/03/08 03:36:01;;;;;;;3.90;2.60;;;0.90;99.90;;;;;;5111772;28;20205;-44
2023/03/08 03:38:27;;;;;;;5.03;3.23;;;0.90;99.90;;;;;;5101588;28;20605;-45
2023/03/08 03:41:04;;;;;;;4.57;2.80;;;0.90;99.90;;;;;;5096157;28;20202;-45
2023/03/08 03:43:30;;;;;;;5.50;3.17;;;0.90;99.90;;;;;;5095275;28;20171;-44
2023/03/08 03:46:01;;;;;;;5.87;3.07;;;0.90;99.90;;;;;;5094601;28;20244;-44
2023/03/08 03:48:27;;;;;;;4.80;3.00;;;0.90;99.90;;;;;;5093592;28;20189;-43
2023/03/08 03:51:01;;;;;;;5.80;3.00;;;0.90;99.90;;;;;;5095252;28;20203;-45
2023/03/08 03:53:28;;;;;;;4.60;2.83;;;0.80;99.90;;;;;;5094927;28;20515;-44
2023/03/08 03:55:54;;;;;;;3.87;2.70;;;0.90;99.90;;;;;;5095395;28;20393;-44
2023/03/08 03:58:20;;;;;;;6.57;2.80;;;0.90;99.90;;;;;;5095067;28;20558;-44
2023/03/08 04:00:46;;;;;;;7.70;2.90;;;0.90;99.90;;;;;;5094982;28;20195;-44
2023/03/08 04:03:11;;;;;;;6.03;3.10;;;0.80;99.90;;;;;;5094279;28;20253;-44
2023/03/08 04:05:38;;;;;;;3.60;2.90;;;0.80;99.90;;;;;;5095176;28;20193;-45
2023/03/08 04:08:05;;;;;;;6.47;3.40;;;0.80;99.90;;;;;;5093572;28;20190;-45
2023/03/08 04:10:31;;;;;;;5.13;2.77;;;0.80;99.90;;;;;;5094455;28;20203;-47
2023/03/08 04:12:56;;;;;;;5.87;2.77;;;0.80;99.90;;;;;;5094425;28;20257;-44
2023/03/08 04:15:22;;;;;;;3.83;2.73;;;0.80;99.90;;;;;;5094198;28;20554;-44
2023/03/08 04:17:49;;;;;;;4.80;3.17;;;0.80;99.90;;;;;;5093973;28;20289;-45
2023/03/08 04:20:15;;;;;;;4.37;2.57;;;0.80;99.90;;;;;;5094100;28;20241;-45
2023/03/08 04:22:40;;;;;;;6.37;3.13;;;0.80;99.90;;;;;;5094195;28;20174;-46
2023/03/08 04:25:06;;;;;;;5.57;3.40;;;0.80;99.90;;;;;;5094211;28;20187;-45
2023/03/08 04:27:32;;;;;;;6.00;3.20;;;0.80;99.90;;;;;;5093245;28;20240;-45
2023/03/08 04:29:57;;;;;;;8.37;3.67;;;0.80;99.90;;;;;;5093934;28;20708;-45
2023/03/08 04:32:24;;;;;;;8.17;3.43;;;0.80;99.90;;;;;;5092778;28;20661;-45
2023/03/08 04:34:50;;;;;;;7.87;3.97;;;0.80;99.90;;;;;;5094128;28;20183;-46
2023/03/08 04:37:15;;;;;;;7.13;3.60;;;0.80;99.90;;;;;;5093477;28;20199;-45
2023/03/08 04:39:41;;;;;;;6.27;4.03;;;0.80;99.90;;;;;;5092211;28;20539;-43
2023/03/08 04:42:06;;;;;;;6.00;3.77;;;0.80;99.90;;;;;;5092258;28;20368;-43
2023/03/08 04:44:32;;;;;;;6.50;4.30;;;0.80;99.90;;;;;;5093483;28;20535;-45
2023/03/08 04:46:58;;;;;;;8.13;3.73;;;0.80;99.90;;;;;;5093539;28;20640;-45
2023/03/08 04:49:24;;;;;;;6.17;3.43;;;0.80;99.90;;;;;;5092209;28;20711;-46
2023/03/08 04:51:49;;;;;;;6.10;3.47;;;0.80;99.90;;;;;;5093958;28;20194;-45
2023/03/08 04:54:15;;;;;;;6.83;3.40;;;0.80;99.90;;;;;;5093675;28;20676;-48
2023/03/08 04:56:41;;;;;;;6.60;3.70;;;0.80;99.90;;;;;;5093369;28;20722;-46
2023/03/08 04:59:06;;;;;;;5.60;3.33;;;0.80;99.90;;;;;;5093506;28;20174;-46
2023/03/08 05:01:32;;;;;;;5.20;3.50;;;0.80;99.90;;;;;;5093370;28;20191;-45
2023/03/08 05:03:58;;;;;;;5.30;3.70;;;0.70;99.90;;;;;;5093547;28;20175;-46
2023/03/08 05:06:26;;;;;;;6.67;4.13;;;0.80;99.90;;;;;;5093361;28;20175;-47
2023/03/08 05:08:52;;;;;;;6.50;4.43;;;0.70;99.90;;;;;;5093438;28;20178;-45
2023/03/08 05:11:21;;;;;;;7.37;4.17;;;0.70;99.90;;;;;;5094197;28;20202;-46
2023/03/08 05:13:47;;;;;;;6.00;3.97;;;0.70;99.90;;;;;;5094465;28;20202;-45
2023/03/08 05:16:13;;;;;;;5.37;3.77;;;0.70;99.90;;;;;;5093365;28;20258;-46
2023/03/08 05:18:39;;;;;;;4.80;3.63;;;0.80;99.90;;;;;;5093190;28;20281;-46
2023/03/08 05:21:11;;;;;;;4.70;3.23;;;0.70;99.90;;;;;;5093141;28;20199;-45
2023/03/08 05:23:36;;;;;;;4.97;3.63;;;0.80;99.90;;;;;;5093098;28;20191;-46
2023/03/08 05:26:04;;;;;;;7.13;4.57;;;0.70;99.90;;;;;;5093158;28;20206;-45
2023/03/08 05:28:32;;;;;;;7.00;4.60;;;0.70;99.90;;;;;;5093183;28;20269;-47
2023/03/08 05:31:07;;;;;;;7.43;5.07;;;0.70;99.90;;;;;;5093296;28;20197;-46
2023/03/08 05:33:34;;;;;;;7.27;4.70;;;0.70;99.90;;;;;;5093763;28;20182;-45
2023/03/08 05:36:00;;;;;;;7.93;4.43;;;0.70;99.90;;;;;;5093213;28;20203;-46
2023/03/08 05:38:26;;;;;;;5.83;4.13;;;0.70;99.90;;;;;;5095980;28;20182;-46
2023/03/08 05:40:52;;;;;;;6.77;4.27;;;0.70;99.90;;;;;;5095399;28;20206;-46
2023/03/08 05:43:18;;;;;;;5.57;3.60;;;0.70;99.90;;;;;;5096745;28;20167;-47
2023/03/08 05:45:59;;;;;;;6.77;4.50;;;0.70;99.90;;;;;;5097235;28;20699;-46
2023/03/08 05:48:25;;;;;;;8.90;4.73;;;0.70;99.90;;;;;;5095856;28;20250;-46
2023/03/08 05:50:51;;;;;;;4.60;3.50;;;0.70;99.90;;;;;;5096501;28;20740;-46
2023/03/08 05:53:17;;;;;;;6.47;3.70;;;0.70;99.90;;;;;;5095335;28;20236;-47
2023/03/08 05:55:42;;;;;;;6.17;3.60;;;0.70;99.90;;;;;;5096878;28;20202;-46
2023/03/08 05:58:08;;;;;;;10.43;4.20;;;0.70;99.90;;;;;;5096467;28;20705;-47
2023/03/08 06:00:34;;;;;;;6.93;3.77;;;0.70;99.90;;;;;;5096545;28;20230;-46
2023/03/08 06:03:02;;;;;;;6.23;4.47;;;0.70;99.90;;;;;;5096377;28;20209;-46
2023/03/08 06:05:28;;;;;;;8.73;4.90;;;0.70;99.90;;;;;;5096242;28;20545;-46
2023/03/08 06:07:54;;;;;;;7.40;5.07;;;0.70;99.90;;;;;;5096326;28;20269;-45
2023/03/08 06:10:20;;;;;;;5.80;3.73;;;0.70;99.90;;;;;;5096831;28;20278;-43
2023/03/08 06:12:45;;;;;;;9.30;4.57;;;0.70;99.90;;;;;;5096139;28;20174;-44
2023/03/08 06:15:12;;;;;;;6.30;4.07;;;0.70;99.90;;;;;;5096173;28;20642;-45
2023/03/08 06:17:38;;;;;;;4.97;3.93;;;0.70;99.90;;;;;;5096193;28;20727;-44
2023/03/08 06:20:04;;;;;;;7.73;4.93;;;0.70;99.90;;;;;;5096247;28;20268;-45
2023/03/08 06:22:29;;;;;;;8.83;5.37;;;0.70;99.90;;;;;;5096318;28;20542;-44
2023/03/08 06:24:55;;;;;;;7.53;5.00;;;0.70;99.90;;;;;;5095980;28;20166;-45
2023/03/08 06:27:20;;;;;;;8.13;4.87;;;0.70;99.90;;;;;;5096025;28;20181;-43
2023/03/08 06:29:47;;;;;;;6.03;4.30;;;0.70;99.90;;;;;;5096582;28;20753;-43
2023/03/08 06:32:13;;;;;;;7.73;5.20;;;0.70;99.90;;;;;;5116917;28;20179;-44
2023/03/08 06:34:39;;;;;;;5.43;3.67;;;0.70;99.90;;;;;;5114727;28;20195;-44
2023/03/08 06:37:05;;;;;;;4.30;3.57;;;0.70;99.90;;;;;;5097609;28;20195;-44
2023/03/08 06:39:31;;;;;;;5.97;4.03;;;0.70;99.90;;;;;;5096507;28;20171;-45
2023/03/08 06:41:57;;;;;;;5.00;3.80;;;0.70;99.90;;;;;;5096591;28;20569;-42
2023/03/08 06:44:26;;;;;;;5.60;3.53;;;0.70;99.90;;;;;;5096426;28;20218;-44
2023/03/08 06:46:51;;;;;;;5.20;3.77;;;0.70;99.90;;;;;;5095752;28;20178;-45
2023/03/08 06:49:17;;;;;;;5.00;4.07;;;0.70;99.90;;;;;;5094985;28;20186;-44
2023/03/08 06:51:42;;;;;;;5.70;4.20;;;0.70;99.90;;;;;;5095370;28;20258;-43
2023/03/08 06:54:08;;;;;;;5.73;4.27;;;0.70;99.90;;;;;;5095382;28;20182;-42
2023/03/08 06:56:33;;;;;;;5.80;4.17;;;0.70;99.90;;;;;;5095553;28;20206;-44
2023/03/08 06:58:59;;;;;;;6.43;4.87;;;0.70;99.90;;;;;;5095501;28;20273;-43
2023/03/08 07:01:24;;;;;;;6.70;5.03;;;0.70;99.90;;;;;;5095176;28;20210;-43
2023/03/08 07:03:51;;;;;;;7.70;5.03;;;0.80;99.90;;;;;;5095537;28;20175;-44
2023/03/08 07:06:17;;;;;;;9.87;5.53;;;0.80;99.90;;;;;;5093865;28;20185;-45
2023/03/08 07:08:42;;;;;;;14.23;6.67;;;0.80;99.90;;;;;;5095058;28;20183;-43
2023/03/08 07:11:08;;;;;;;8.07;5.23;;;0.80;99.90;;;;;;5094891;28;20542;-43
2023/03/08 07:13:35;;;;;;;9.33;5.80;;;0.80;99.90;;;;;;5095291;28;20236;-44
2023/03/08 07:16:06;;;;;;;7.53;5.03;;;0.90;99.90;;;;;;5095103;28;20214;-44
2023/03/08 07:18:32;;;;;;;15.83;7.33;;;0.80;99.90;;;;;;5093576;28;20206;-46
2023/03/08 07:20:57;;;;;;;19.47;9.80;;;0.80;99.90;;;;;;5095034;28;20562;-44
2023/03/08 07:23:23;;;;;;;22.80;9.43;;;0.90;99.90;;;;;;5094831;28;20634;-42
2023/03/08 07:25:49;;;;;;;19.43;8.40;;;0.90;99.90;;;;;;5094736;28;20193;-44
2023/03/08 07:28:15;;;;;;;11.47;6.77;;;0.90;99.90;;;;;;5094694;28;20201;-45
2023/03/08 07:30:45;;;;;;;13.97;6.73;;;0.90;99.90;;;;;;5094647;28;20203;-43
2023/03/08 07:33:11;;;;;;;18.47;8.83;;;0.90;99.90;;;;;;5094868;28;20174;-44
2023/03/08 07:35:37;;;;;;;19.67;9.37;;;0.90;99.90;;;;;;5094828;28;20256;-43
2023/03/08 07:38:02;;;;;;;16.77;7.80;;;0.90;99.90;;;;;;5094827;28;20257;-45
2023/03/08 07:40:28;;;;;;;17.17;8.17;;;0.90;99.90;;;;;;5094673;28;20198;-44
2023/03/08 07:42:55;;;;;;;12.00;6.00;;;0.90;99.90;;;;;;5094995;28;20206;-44
2023/03/08 07:45:21;;;;;;;17.80;7.73;;;0.90;99.90;;;;;;5094343;28;20663;-45
2023/03/08 07:47:51;;;;;;;15.20;7.13;;;0.90;99.90;;;;;;5094669;28;20600;-45
2023/03/08 07:50:17;;;;;;;15.43;7.80;;;0.90;99.90;;;;;;5094554;28;20194;-44
2023/03/08 07:52:42;;;;;;;12.97;6.90;;;0.90;99.90;;;;;;5094567;28;20261;-45
2023/03/08 07:55:08;;;;;;;12.47;6.70;;;1.00;99.90;;;;;;5094352;28;20654;-46
2023/03/08 07:57:34;;;;;;;12.67;7.23;;;1.00;99.90;;;;;;5094480;28;20185;-44
2023/03/08 07:59:59;;;;;;;10.53;6.37;;;1.00;99.90;;;;;;5094295;28;20195;-43
2023/03/08 08:02:25;;;;;;;12.53;7.43;;;1.00;99.90;;;;;;5093682;28;20181;-45
2023/03/08 08:04:50;;;;;;;8.47;6.10;;;1.00;99.90;;;;;;5094290;28;20534;-45
2023/03/08 08:07:16;;;;;;;11.63;6.43;;;1.00;99.90;;;;;;5094016;28;20551;-45
2023/03/08 08:09:42;;;;;;;9.47;6.50;;;1.00;99.90;;;;;;5094162;28;20185;-46
2023/03/08 08:12:08;;;;;;;9.07;6.17;;;1.10;99.90;;;;;;5094060;28;20174;-46
2023/03/08 08:14:34;;;;;;;9.57;4.87;;;1.10;99.90;;;;;;5094284;28;20190;-45
2023/03/08 08:17:00;;;;;;;8.67;5.80;;;1.10;99.90;;;;;;5093955;28;20205;-43
2023/03/08 08:19:25;;;;;;;11.20;7.13;;;1.10;99.90;;;;;;5094020;28;20178;-46
2023/03/08 08:21:51;;;;;;;14.47;9.17;;;1.20;99.90;;;;;;5093834;28;20210;-44
2023/03/08 08:24:16;;;;;;;11.73;7.80;;;1.20;99.90;;;;;;5094198;28;20179;-45
2023/03/08 08:26:42;;;;;;;11.90;8.07;;;1.30;99.90;;;;;;5094085;28;20179;-46
2023/03/08 08:29:08;;;;;;;14.60;8.73;;;1.30;99.90;;;;;;5092637;28;20181;-45
2023/03/08 08:31:33;;;;;;;15.70;9.30;;;1.30;99.90;;;;;;5093923;28;20301;-44
2023/03/08 08:34:00;;;;;;;14.77;9.80;;;1.30;99.90;;;;;;5093683;28;20244;-45
2023/03/08 08:36:27;;;;;;;16.80;10.10;;;1.40;99.90;;;;;;5093768;28;20214;-44
2023/03/08 08:38:53;;;;;;;13.60;9.07;;;1.40;99.90;;;;;;5093615;28;20171;-45
2023/03/08 08:41:20;;;;;;;16.27;11.07;;;1.40;99.90;;;;;;5093538;28;20190;-44
2023/03/08 08:43:47;;;;;;;26.70;17.87;;;1.50;99.90;;;;;;5093619;28;20240;-45
2023/03/08 08:46:14;;;;;;;36.77;20.93;;;1.50;99.90;;;;;;5093710;28;20182;-44
2023/03/08 08:48:41;;;;;;;28.97;17.07;;;1.50;99.90;;;;;;5093490;28;20257;-44
2023/03/08 08:51:10;;;;;;;30.50;18.37;;;1.50;99.90;;;;;;5093409;28;20278;-43
2023/03/08 08:53:36;;;;;;;21.10;13.37;;;1.60;99.90;;;;;;5093453;28;20269;-44
2023/03/08 08:56:11;;;;;;;20.07;10.40;;;1.60;99.90;;;;;;5093552;28;20297;-45
2023/03/08 08:58:38;;;;;;;25.90;14.87;;;1.60;99.90;;;;;;5093691;28;20670;-43
2023/03/08 09:01:04;;;;;;;20.67;12.90;;;1.60;99.90;;;;;;5093290;28;20202;-43
2023/03/08 09:03:29;;;;;;;23.37;12.80;;;1.60;99.90;;;;;;5093419;28;20649;-44
2023/03/08 09:05:57;;;;;;;21.23;12.37;;;1.60;99.90;;;;;;5093278;28;20519;-47
2023/03/08 09:08:23;;;;;;;22.73;14.53;;;1.60;99.90;;;;;;5093477;28;20574;-46
2023/03/08 09:10:50;;;;;;;18.10;12.13;;;1.60;99.90;;;;;;5093446;28;20234;-43
2023/03/08 09:13:15;;;;;;;18.50;11.73;;;1.70;99.90;;;;;;5096224;28;20175;-43
2023/03/08 09:15:41;;;;;;;18.93;10.93;;;1.70;99.90;;;;;;5097254;28;20198;-43
2023/03/08 09:18:07;;;;;;;17.93;10.67;;;1.70;99.90;;;;;;5097264;28;20194;-44
2023/03/08 09:20:32;;;;;;;22.53;12.93;;;1.80;99.90;;;;;;5097415;28;20244;-44
2023/03/08 09:22:58;;;;;;;20.70;12.23;;;1.80;99.90;;;;;;5097168;28;20216;-45
2023/03/08 09:25:23;;;;;;;22.03;11.77;;;1.90;99.90;;;;;;5097180;28;20183;-44
2023/03/08 09:27:49;;;;;;;22.00;11.87;;;1.90;99.90;;;;;;5097293;28;20584;-45
2023/03/08 09:30:16;;;;;;;21.37;11.83;;;2.00;99.90;;;;;;5112821;28;20185;-44
2023/03/08 09:32:42;;;;;;;20.57;11.50;;;2.00;99.90;;;;;;5118047;28;20182;-45
2023/03/08 09:35:08;;;;;;;16.17;9.73;;;2.00;99.90;;;;;;5099295;28;20190;-45
2023/03/08 09:37:34;;;;;;;19.73;11.07;;;2.10;99.90;;;;;;5098619;28;20179;-43
2023/03/08 09:40:00;;;;;;;16.30;10.70;;;2.00;99.90;;;;;;5095822;28;20225;-44
2023/03/08 09:42:29;;;;;;;13.93;9.10;;;2.00;99.90;;;;;;5096931;28;20640;-45
2023/03/08 09:45:04;;;;;;;12.20;8.97;;;2.00;99.90;;;;;;5097719;28;20619;-44
2023/03/08 09:47:47;;;;;;;13.40;9.70;;;1.90;99.90;;;;;;5097283;28;20170;-45
2023/03/08 09:50:45;;;;;;;13.17;9.40;;;1.90;99.90;;;;;;5096872;28;20195;-44
2023/03/08 09:53:23;;;;;;;12.53;9.30;;;1.80;99.90;;;;;;5063536;28;20222;-44
2023/03/08 09:56:29;;;;;;;12.57;8.83;;;1.80;99.90;;;;;;5097398;28;20230;-45
2023/03/08 09:59:04;;;;;;;17.90;9.23;;;1.80;99.90;;;;;;5097039;28;20194;-44
2023/03/08 10:01:49;;;;;;;14.10;9.50;;;1.80;99.90;;;;;;5097236;28;20221;-45
2023/03/08 10:04:52;;;;;;;16.47;10.30;;;1.90;99.90;;;;;;5097391;28;20185;-43
2023/03/08 10:07:35;;;;;;;22.80;15.57;;;1.90;99.90;;;;;;5095572;28;20170;-44
2023/03/08 10:10:40;;;;;;;16.27;10.90;;;2.00;99.90;;;;;;5096509;28;20203;-43
2023/03/08 10:13:34;;;;;;;15.40;10.03;;;2.00;99.90;;;;;;5096886;28;20171;-45
2023/03/08 10:16:08;;;;;;;14.20;9.60;;;2.00;99.90;;;;;;5095053;28;20207;-44
2023/03/08 10:18:53;;;;;;;18.30;11.47;;;2.00;99.90;;;;;;5096246;28;20198;-44
2023/03/08 10:21:23;;;;;;;18.23;12.60;;;2.10;99.90;;;;;;5096622;28;20275;-45
2023/03/08 10:24:25;;;;;;;16.50;11.30;;;2.10;99.90;;;;;;5094273;28;20266;-44
2023/03/08 10:26:51;;;;;;;16.30;10.97;;;2.10;99.90;;;;;;5094784;28;20734;-44
2023/03/08 10:29:17;;;;;;;17.37;11.23;;;2.20;99.90;;;;;;5094681;28;20240;-44
2023/03/08 10:31:45;;;;;;;15.70;11.10;;;2.30;99.90;;;;;;5095862;28;20203;-43
2023/03/08 10:34:15;;;;;;;17.47;11.53;;;2.40;99.90;;;;;;5096154;28;20209;-45
2023/03/08 10:36:59;;;;;;;17.30;11.57;;;2.50;99.90;;;;;;5096590;28;20207;-44
2023/03/08 10:39:25;;;;;;;18.20;11.90;;;2.60;99.90;;;;;;5094634;28;20175;-44
2023/03/08 10:41:57;;;;;;;17.03;11.53;;;2.70;99.90;;;;;;5095881;28;20723;-44
2023/03/08 10:44:44;;;;;;;17.40;11.60;;;2.80;99.90;;;;;;5095637;28;20179;-45
2023/03/08 10:47:23;;;;;;;17.27;12.43;;;2.90;99.90;;;;;;5095937;28;20282;-44
2023/03/08 10:50:01;;;;;;;18.30;11.23;;;3.10;99.90;;;;;;5095788;28;20177;-43
2023/03/08 10:52:27;;;;;;;19.13;12.17;;;3.20;99.90;;;;;;5094380;28;20174;-44
2023/03/08 10:55:00;;;;;;;19.47;12.57;;;3.40;99.90;;;;;;5095719;28;20179;-43
2023/03/08 10:57:28;;;;;;;18.20;11.60;;;3.70;99.90;;;;;;5095327;28;20203;-44
2023/03/08 10:59:56;;;;;;;18.67;12.30;;;3.90;99.90;;;;;;5095410;28;20175;-44
2023/03/08 11:02:22;;;;;;;22.40;12.07;;;4.20;99.90;;;;;;5095535;28;20596;-43
2023/03/08 11:04:57;;;;;;;21.83;13.00;;;4.30;99.90;;;;;;5095768;28;20201;-43
2023/03/08 11:07:28;;;;;;;19.67;12.53;;;4.50;99.90;;;;;;5095449;28;20162;-45
2023/03/08 11:10:24;;;;;;;20.13;13.10;;;4.60;99.90;;;;;;5095343;28;20172;-43
2023/03/08 11:13:25;;;;;;;18.03;13.33;;;4.70;99.90;;;;;;5082549;28;20222;-42
2023/03/08 11:16:15;;;;;;;21.53;14.27;;;4.70;99.90;;;;;;5094829;28;20206;-43
2023/03/08 11:19:00;;;;;;;20.67;13.20;;;4.60;99.90;;;;;;5063173;28;20198;-43
2023/03/08 11:21:41;;;;;;;22.43;14.07;;;4.60;99.90;;;;;;5095057;28;20674;-45
2023/03/08 11:24:22;;;;;;;20.87;13.97;;;4.70;99.90;;;;;;5095195;28;20221;-44
2023/03/08 11:27:20;;;;;;;22.20;14.77;;;4.60;99.90;;;;;;5095127;28;20249;-43
2023/03/08 11:29:57;;;;;;;22.20;15.50;;;4.70;99.90;;;;;;5095163;28;20187;-44
2023/03/08 11:33:00;;;;;;;22.00;15.13;;;4.80;99.90;;;;;;5095065;28;20176;-43
2023/03/08 11:35:45;;;;;;;22.60;14.97;;;4.90;99.90;;;;;;5094770;28;20183;-43
2023/03/08 11:38:18;;;;;;;22.57;15.93;;;4.90;99.90;;;;;;5094725;28;20183;-43
2023/03/08 11:41:22;;;;;;;24.10;15.37;;;4.80;99.90;;;;;;5094761;28;20210;-42
2023/03/08 11:43:59;;;;;;;24.73;15.40;;;4.90;99.90;;;;;;5094875;28;20184;-44
2023/03/08 11:46:58;;;;;;;27.70;19.33;;;5.00;99.90;;;;;;5094703;28;20178;-44
2023/03/08 11:49:42;;;;;;;25.10;16.73;;;5.10;99.90;;;;;;5094670;28;20208;-44
2023/03/08 11:52:32;;;;;;;32.13;21.37;;;5.00;99.90;;;;;;5094643;28;20169;-45
2023/03/08 11:55:24;;;;;;;36.97;22.57;;;5.00;99.90;;;;;;5094567;28;20160;-43
2023/03/08 11:58:05;;;;;;;37.23;22.93;;;4.90;99.90;;;;;;5063008;28;20663;-45
2023/03/08 12:00:38;;;;;;;36.93;23.87;;;4.80;99.90;;;;;;5094163;28;20211;-43
2023/03/08 12:03:28;;;;;;;35.40;22.77;;;4.70;99.90;;;;;;5094479;28;20182;-45
2023/03/08 12:06:01;;;;;;;23.40;15.77;;;4.50;99.90;;;;;;5094104;28;20176;-44
2023/03/08 12:08:36;;;;;;;27.77;18.40;;;4.60;99.90;;;;;;5094366;28;20160;-49
2023/03/08 12:11:23;;;;;;;27.07;17.53;;;4.70;99.90;;;;;;5093950;28;20240;-47
2023/03/08 12:14:04;;;;;;;22.03;15.27;;;4.80;99.90;;;;;;5094288;28;20168;-49
2023/03/08 12:16:38;;;;;;;24.33;15.40;;;4.90;99.90;;;;;;5094147;28;20537;-49
2023/03/08 12:19:19;;;;;;;25.00;15.50;;;5.00;99.90;;;;;;5094546;28;20594;-48
2023/03/08 12:21:49;;;;;;;22.30;15.23;;;5.10;99.90;;;;;;5094119;28;20203;-49
2023/03/08 12:24:14;;;;;;;23.90;16.13;;;5.20;99.90;;;;;;5094174;28;20174;-49
2023/03/08 12:26:48;;;;;;;23.50;15.53;;;5.20;99.90;;;;;;5093755;28;20178;-49
2023/03/08 12:29:36;;;;;;;22.77;15.20;;;5.20;99.90;;;;;;5093841;28;20622;-47
2023/03/08 12:32:03;;;;;;;26.20;15.27;;;5.30;99.90;;;;;;5093197;28;20180;-47
2023/03/08 12:34:41;;;;;;;22.73;15.20;;;5.30;99.90;;;;;;5094340;28;20207;-45
2023/03/08 12:37:23;;;;;;;21.27;15.50;;;5.30;99.90;;;;;;5103460;28;20195;-46
2023/03/08 12:40:09;;;;;;;21.03;14.47;;;5.30;99.90;;;;;;5098704;28;20517;-47
2023/03/08 12:42:38;;;;;;;21.17;15.20;;;5.30;99.90;;;;;;5093910;28;20642;-47
2023/03/08 12:45:08;;;;;;;21.77;15.20;;;5.40;99.90;;;;;;5093980;28;20180;-47
2023/03/08 12:47:34;;;;;;;20.27;13.43;;;5.40;99.90;;;;;;5093351;28;20183;-46
2023/03/08 12:50:09;;;;;;;20.43;13.90;;;5.30;99.90;;;;;;5093469;28;20272;-49
2023/03/08 12:52:35;;;;;;;22.60;13.23;;;5.20;99.90;;;;;;5093966;28;20624;-48
2023/03/08 12:55:35;;;;;;;22.43;14.63;;;5.30;99.90;;;;;;5093711;28;20264;-47
2023/03/08 12:58:03;;;;;;;18.57;13.53;;;5.20;99.90;;;;;;5089307;28;20210;-48
2023/03/08 13:00:36;;;;;;;19.80;13.83;;;5.20;99.90;;;;;;5093585;28;20341;-48
2023/03/08 13:03:35;;;;;;;20.87;15.00;;;5.10;99.90;;;;;;5093733;28;20191;-48
2023/03/08 13:06:12;;;;;;;21.73;14.83;;;5.10;99.90;;;;;;5094196;28;20185;-47